createdAt,value
2018-09-23T00:01:08.456Z,0.10
2018-09-23T00:03:38.155Z,0.10
2018-09-23T00:06:06.999Z,0.10
2018-09-23T00:08:35.801Z,0.40
2018-09-23T00:11:04.625Z,0.10
2018-09-23T00:13:33.181Z,0.10
2018-09-23T00:16:02.125Z,0.10
2018-09-23T00:18:31.132Z,0.10
2018-09-23T00:21:00.110Z,0.10
2018-09-23T00:23:28.850Z,0.37
2018-09-23T00:25:57.564Z,0.10
2018-09-23T00:28:26.135Z,0.10
2018-09-23T00:30:55.024Z,0.10
2018-09-23T00:33:23.588Z,0.10
2018-09-23T00:35:52.466Z,0.10
2018-09-23T00:38:21.807Z,0.10
2018-09-23T00:40:50.640Z,0.67
2018-09-23T00:43:19.224Z,0.10
2018-09-23T00:45:47.808Z,0.10
2018-09-23T00:48:16.971Z,0.10
2018-09-23T00:50:45.528Z,0.33
2018-09-23T00:53:14.584Z,1.40
2018-09-23T00:55:43.160Z,0.10
2018-09-23T00:58:11.839Z,0.20
2018-09-23T01:00:40.900Z,1.40
2018-09-23T01:03:09.535Z,0.20
2018-09-23T01:05:38.080Z,0.63
2018-09-23T01:08:07.000Z,0.80
2018-09-23T01:10:35.712Z,0.10
2018-09-23T01:13:04.390Z,0.10
2018-09-23T01:15:33.282Z,0.10
2018-09-23T01:18:01.919Z,0.40
2018-09-23T01:20:30.847Z,0.10
2018-09-23T01:22:59.412Z,0.10
2018-09-23T01:25:28.325Z,0.23
2018-09-23T01:27:57.020Z,0.10
2018-09-23T01:30:26.043Z,0.10
2018-09-23T01:32:54.549Z,0.10
2018-09-23T01:35:23.404Z,0.10
2018-09-23T01:37:52.415Z,5.67
2018-09-23T01:40:21.167Z,0.10
2018-09-23T01:42:49.776Z,0.10
2018-09-23T01:45:18.395Z,0.10
2018-09-23T01:47:46.991Z,0.43
2018-09-23T01:50:15.693Z,0.10
2018-09-23T01:52:44.286Z,0.10
2018-09-23T01:55:12.896Z,0.10
2018-09-23T01:57:41.465Z,0.20
2018-09-23T02:00:10.288Z,0.10
2018-09-23T02:02:38.860Z,0.10
2018-09-23T02:05:07.542Z,0.10
2018-09-23T02:07:36.100Z,0.10
2018-09-23T02:10:04.726Z,0.10
2018-09-23T02:12:33.294Z,0.10
2018-09-23T02:15:01.976Z,0.10
2018-09-23T02:17:30.562Z,0.10
2018-09-23T02:19:59.114Z,0.10
2018-09-23T02:22:27.786Z,0.33
2018-09-23T02:24:56.758Z,0.20
2018-09-23T02:27:25.511Z,0.10
2018-09-23T02:29:54.110Z,0.10
2018-09-23T02:32:22.660Z,0.30
2018-09-23T02:34:51.505Z,0.20
2018-09-23T02:37:20.081Z,1.47
2018-09-23T02:39:48.886Z,0.20
2018-09-23T02:42:17.701Z,0.10
2018-09-23T02:44:46.604Z,0.10
2018-09-23T02:47:15.206Z,0.20
2018-09-23T02:49:43.790Z,0.10
2018-09-23T02:52:12.339Z,0.20
2018-09-23T02:54:40.942Z,0.40
2018-09-23T02:57:09.505Z,0.10
2018-09-23T02:59:38.174Z,0.27
2018-09-23T03:02:07.061Z,0.60
2018-09-23T03:04:35.987Z,0.20
2018-09-23T03:07:04.753Z,0.10
2018-09-23T03:09:33.342Z,0.27
2018-09-23T03:12:02.227Z,0.20
2018-09-23T03:14:30.743Z,0.10
2018-09-23T03:16:59.313Z,0.30
2018-09-23T03:19:27.895Z,1.33
2018-09-23T03:21:56.445Z,0.20
2018-09-23T03:24:25.018Z,0.10
2018-09-23T03:26:53.555Z,0.10
2018-09-23T03:29:22.253Z,0.10
2018-09-23T03:31:50.863Z,0.60
2018-09-23T03:34:19.417Z,0.33
2018-09-23T03:36:47.951Z,0.10
2018-09-23T03:39:16.559Z,0.10
2018-09-23T03:41:45.097Z,0.10
2018-09-23T03:44:13.612Z,0.20
2018-09-23T03:46:42.217Z,0.20
2018-09-23T03:49:10.909Z,0.10
2018-09-23T03:51:39.515Z,0.10
2018-09-23T03:54:08.177Z,0.10
2018-09-23T03:56:36.839Z,0.13
2018-09-23T03:59:05.645Z,0.30
2018-09-23T04:01:34.201Z,0.20
2018-09-23T04:04:02.748Z,0.10
2018-09-23T04:06:31.333Z,0.40
2018-09-23T04:08:59.920Z,0.13
2018-09-23T04:11:28.521Z,0.17
2018-09-23T04:13:57.546Z,0.10
2018-09-23T04:16:26.351Z,0.10
2018-09-23T04:18:56.851Z,0.10
2018-09-23T04:21:25.437Z,0.20
2018-09-23T04:23:54.090Z,0.10
2018-09-23T04:26:22.734Z,0.10
2018-09-23T04:28:51.316Z,0.10
2018-09-23T04:31:19.872Z,0.37
2018-09-23T04:33:48.480Z,0.40
2018-09-23T04:36:17.092Z,0.10
2018-09-23T04:38:45.624Z,0.10
2018-09-23T04:41:14.154Z,0.20
2018-09-23T04:43:42.698Z,1.23
2018-09-23T04:46:11.295Z,0.20
2018-09-23T04:48:39.837Z,0.10
2018-09-23T04:51:08.428Z,0.30
2018-09-23T04:53:37.008Z,0.10
2018-09-23T04:56:05.557Z,0.10
2018-09-23T04:58:34.336Z,0.47
2018-09-23T05:01:02.875Z,0.10
2018-09-23T05:03:31.484Z,0.20
2018-09-23T05:06:00.066Z,0.10
2018-09-23T05:08:28.646Z,0.43
2018-09-23T05:10:57.189Z,0.10
2018-09-23T05:13:25.867Z,0.20
2018-09-23T05:15:54.461Z,0.20
2018-09-23T05:18:23.061Z,0.47
2018-09-23T05:20:51.867Z,0.30
2018-09-23T05:23:20.521Z,0.10
2018-09-23T05:25:49.098Z,0.10
2018-09-23T05:28:17.739Z,0.10
2018-09-23T05:30:46.393Z,0.10
2018-09-23T05:33:14.969Z,0.10
2018-09-23T05:35:43.678Z,0.10
2018-09-23T05:38:12.289Z,0.20
2018-09-23T05:40:40.857Z,0.20
2018-09-23T05:43:09.893Z,0.10
2018-09-23T05:45:38.429Z,0.20
2018-09-23T05:48:07.027Z,0.10
2018-09-23T05:50:35.607Z,0.70
2018-09-23T05:53:04.155Z,0.17
2018-09-23T05:55:32.772Z,0.10
2018-09-23T05:58:01.325Z,0.30
2018-09-23T06:00:32.853Z,0.10
2018-09-23T06:03:01.458Z,0.10
2018-09-23T06:05:30.555Z,0.47
2018-09-23T06:07:59.242Z,0.10
2018-09-23T06:10:27.801Z,0.10
2018-09-23T06:12:56.618Z,0.10
2018-09-23T06:15:25.290Z,0.10
2018-09-23T06:17:53.837Z,0.10
2018-09-23T06:20:22.445Z,0.20
2018-09-23T06:22:51.568Z,0.13
2018-09-23T06:25:20.200Z,0.10
2018-09-23T06:27:49.656Z,0.10
2018-09-23T06:30:18.228Z,0.20
2018-09-23T06:32:46.929Z,0.13
2018-09-23T06:35:15.504Z,1.33
2018-09-23T06:37:44.047Z,0.13
2018-09-23T06:40:12.588Z,0.13
2018-09-23T06:42:41.188Z,0.40
2018-09-23T06:45:09.727Z,0.20
2018-09-23T06:47:38.253Z,0.13
2018-09-23T06:50:07.004Z,0.10
2018-09-23T06:52:35.602Z,0.10
2018-09-23T06:55:04.295Z,0.10
2018-09-23T06:57:32.993Z,0.10
2018-09-23T07:00:01.574Z,0.10
2018-09-23T07:02:30.146Z,0.20
2018-09-23T07:04:58.723Z,0.10
2018-09-23T07:07:27.292Z,0.10
2018-09-23T07:09:55.849Z,0.30
2018-09-23T07:12:24.490Z,0.10
2018-09-23T07:14:53.036Z,0.30
2018-09-23T07:17:21.606Z,0.10
2018-09-23T07:19:50.173Z,0.10
2018-09-23T07:22:18.856Z,0.27
2018-09-23T07:24:47.435Z,0.10
2018-09-23T07:27:15.985Z,0.17
2018-09-23T07:29:44.541Z,0.20
2018-09-23T07:32:13.118Z,0.20
2018-09-23T07:34:41.848Z,0.30
2018-09-23T07:37:10.642Z,0.10
2018-09-23T07:39:39.247Z,0.10
2018-09-23T07:42:07.795Z,0.63
2018-09-23T07:44:36.362Z,0.87
2018-09-23T07:47:05.185Z,0.60
2018-09-23T07:49:33.761Z,0.70
2018-09-23T07:52:02.481Z,0.20
2018-09-23T07:54:32.025Z,0.20
2018-09-23T07:57:01.516Z,0.20
2018-09-23T07:59:30.067Z,0.17
2018-09-23T08:01:58.604Z,0.50
2018-09-23T08:04:27.405Z,0.10
2018-09-23T08:06:56.043Z,0.10
2018-09-23T08:09:24.807Z,0.20
2018-09-23T08:11:53.362Z,0.30
2018-09-23T08:14:22.235Z,0.10
2018-09-23T08:16:50.931Z,0.20
2018-09-23T08:19:19.597Z,0.10
2018-09-23T08:21:48.179Z,0.20
2018-09-23T08:24:16.729Z,0.20
2018-09-23T08:26:45.392Z,0.10
2018-09-23T08:29:14.377Z,0.20
2018-09-23T08:31:43.176Z,0.30
2018-09-23T08:34:11.717Z,0.10
2018-09-23T08:36:40.831Z,0.10
2018-09-23T08:39:09.582Z,1.20
2018-09-23T08:41:38.404Z,0.20
2018-09-23T08:44:07.003Z,0.10
2018-09-23T08:46:35.614Z,0.10
2018-09-23T08:49:04.247Z,0.10
2018-09-23T08:51:33.219Z,0.13
2018-09-23T08:54:01.751Z,0.10
2018-09-23T08:56:30.288Z,0.10
2018-09-23T08:58:59.099Z,0.10
2018-09-23T09:01:27.705Z,0.10
2018-09-23T09:03:56.443Z,0.20
2018-09-23T09:06:25.419Z,1.43
2018-09-23T09:08:54.007Z,0.40
2018-09-23T09:11:22.776Z,0.10
2018-09-23T09:13:51.568Z,0.50
2018-09-23T09:16:20.143Z,0.10
2018-09-23T09:18:48.867Z,0.10
2018-09-23T09:21:17.368Z,0.10
2018-09-23T09:23:46.444Z,0.10
2018-09-23T09:26:15.095Z,0.10
2018-09-23T09:28:43.652Z,0.10
2018-09-23T09:31:12.479Z,0.10
2018-09-23T09:33:41.472Z,0.10
2018-09-23T09:36:10.043Z,0.30
2018-09-23T09:38:38.684Z,0.30
2018-09-23T09:41:07.581Z,0.10
2018-09-23T09:43:36.150Z,0.40
2018-09-23T09:46:05.114Z,0.10
2018-09-23T09:48:33.681Z,0.10
2018-09-23T09:51:02.474Z,0.40
2018-09-23T09:53:31.201Z,0.10
2018-09-23T09:56:00.013Z,0.10
2018-09-23T09:58:28.589Z,0.10
2018-09-23T10:00:57.736Z,0.33
2018-09-23T10:03:26.320Z,0.20
2018-09-23T10:05:54.970Z,0.10
2018-09-23T10:08:23.797Z,0.20
2018-09-23T10:10:52.367Z,0.10
2018-09-23T10:13:21.018Z,0.20
2018-09-23T10:15:49.887Z,0.10
2018-09-23T10:18:18.488Z,0.10
2018-09-23T10:20:47.081Z,0.10
2018-09-23T10:23:15.765Z,0.20
2018-09-23T10:25:44.433Z,0.10
2018-09-23T10:28:13.266Z,0.10
2018-09-23T10:30:41.926Z,0.10
2018-09-23T10:33:10.806Z,0.10
2018-09-23T10:35:39.654Z,0.10
2018-09-23T10:38:08.499Z,0.10
2018-09-23T10:40:37.142Z,8.13
2018-09-23T10:43:05.768Z,8.17
2018-09-23T10:45:34.563Z,7.73
2018-09-23T10:48:03.342Z,8.60
2018-09-23T10:50:31.930Z,8.57
2018-09-23T10:53:00.895Z,9.13
2018-09-23T10:55:30.386Z,8.97
2018-09-23T10:57:58.949Z,8.60
2018-09-23T11:00:27.544Z,8.50
2018-09-23T11:02:56.419Z,7.57
2018-09-23T11:05:25.026Z,7.40
2018-09-23T11:07:53.996Z,7.73
2018-09-23T11:10:22.812Z,8.90
2018-09-23T11:12:51.564Z,8.30
2018-09-23T11:15:20.504Z,8.30
2018-09-23T11:17:49.153Z,9.00
2018-09-23T11:20:17.772Z,8.33
2018-09-23T11:22:46.689Z,8.43
2018-09-23T11:25:15.288Z,8.63
2018-09-23T11:27:43.860Z,8.63
2018-09-23T11:30:12.436Z,7.30
2018-09-23T11:32:41.035Z,7.83
2018-09-23T11:35:09.874Z,6.47
2018-09-23T11:37:38.641Z,5.97
2018-09-23T11:40:07.503Z,6.13
2018-09-23T11:42:36.809Z,5.43
2018-09-23T11:45:05.410Z,5.17
2018-09-23T11:47:34.934Z,4.50
2018-09-23T11:50:03.635Z,4.20
2018-09-23T11:52:32.183Z,3.60
2018-09-23T11:55:00.765Z,3.50
2018-09-23T11:57:29.304Z,3.80
2018-09-23T11:59:57.997Z,3.67
2018-09-23T12:02:26.724Z,3.00
2018-09-23T12:04:55.290Z,2.87
2018-09-23T12:07:23.884Z,2.70
2018-09-23T12:09:52.451Z,3.10
2018-09-23T12:12:21.057Z,3.17
2018-09-23T12:14:49.620Z,3.03
2018-09-23T12:17:18.187Z,3.30
2018-09-23T12:19:46.887Z,4.00
2018-09-23T12:22:15.714Z,3.90
2018-09-23T12:24:44.289Z,4.33
2018-09-23T12:27:12.900Z,4.93
2018-09-23T12:29:41.577Z,4.97
2018-09-23T12:32:10.076Z,4.53
2018-09-23T12:34:38.753Z,4.13
2018-09-23T12:37:07.387Z,4.77
2018-09-23T12:39:35.978Z,4.60
2018-09-23T12:42:04.639Z,4.90
2018-09-23T12:44:33.409Z,5.40
2018-09-23T12:47:02.002Z,5.20
2018-09-23T12:49:30.759Z,5.27
2018-09-23T12:51:59.555Z,5.00
2018-09-23T12:54:28.132Z,5.33
2018-09-23T12:56:56.712Z,4.17
2018-09-23T12:59:25.271Z,4.70
2018-09-23T13:01:53.841Z,3.50
2018-09-23T13:04:22.424Z,3.10
2018-09-23T13:06:51.158Z,3.03
2018-09-23T13:09:20.093Z,3.00
2018-09-23T13:11:49.057Z,2.80
2018-09-23T13:14:17.679Z,3.27
2018-09-23T13:16:46.417Z,3.23
2018-09-23T13:19:15.055Z,3.30
2018-09-23T13:21:43.702Z,3.13
2018-09-23T13:24:12.308Z,3.13
2018-09-23T13:26:40.858Z,3.77
2018-09-23T13:29:10.069Z,3.20
2018-09-23T13:31:38.640Z,2.90
2018-09-23T13:34:07.832Z,2.07
2018-09-23T13:36:36.819Z,1.90
2018-09-23T13:39:06.578Z,1.90
2018-09-23T13:41:35.487Z,1.60
2018-09-23T13:44:04.378Z,1.70
2018-09-23T13:46:33.019Z,1.93
2018-09-23T13:49:01.826Z,1.83
2018-09-23T13:51:30.401Z,2.17
2018-09-23T13:53:59.024Z,1.87
2018-09-23T13:56:27.738Z,2.00
2018-09-23T13:58:56.345Z,1.50
2018-09-23T14:01:25.053Z,1.80
2018-09-23T14:03:53.875Z,1.70
2018-09-23T14:06:22.749Z,1.40
2018-09-23T14:08:51.606Z,1.97
2018-09-23T14:11:20.861Z,1.70
2018-09-23T14:13:49.747Z,1.77
2018-09-23T14:16:18.542Z,1.50
2018-09-23T14:18:47.292Z,1.20
2018-09-23T14:21:16.372Z,1.60
2018-09-23T14:23:45.003Z,1.47
2018-09-23T14:26:13.874Z,1.63
2018-09-23T14:28:42.655Z,1.70
2018-09-23T14:31:11.544Z,1.90
2018-09-23T14:33:40.624Z,1.80
2018-09-23T14:36:09.439Z,2.00
2018-09-23T14:38:39.241Z,1.57
2018-09-23T14:41:07.825Z,1.80
2018-09-23T14:43:37.935Z,1.83
2018-09-23T14:46:06.860Z,1.97
2018-09-23T14:48:35.452Z,1.77
2018-09-23T14:51:04.098Z,2.03
2018-09-23T14:53:32.755Z,1.80
2018-09-23T14:56:01.355Z,1.87
2018-09-23T14:58:29.977Z,2.70
2018-09-23T15:00:58.538Z,2.63
2018-09-23T15:03:27.322Z,2.53
2018-09-23T15:05:55.825Z,3.10
2018-09-23T15:08:24.401Z,2.73
2018-09-23T15:10:53.572Z,2.50
2018-09-23T15:13:22.386Z,1.80
2018-09-23T15:15:51.563Z,2.10
2018-09-23T15:18:20.449Z,1.40
2018-09-23T15:20:49.032Z,1.83
2018-09-23T15:23:17.895Z,1.63
2018-09-23T15:25:46.638Z,1.90
2018-09-23T15:28:15.212Z,1.90
2018-09-23T15:30:44.484Z,1.50
2018-09-23T15:33:13.317Z,1.57
2018-09-23T15:35:42.603Z,1.83
2018-09-23T15:38:11.343Z,1.60
2018-09-23T15:40:40.269Z,1.63
2018-09-23T15:43:09.791Z,1.53
2018-09-23T15:45:38.413Z,1.63
2018-09-23T15:48:07.393Z,1.47
2018-09-23T15:50:36.580Z,1.40
2018-09-23T15:53:05.383Z,1.53
2018-09-23T15:55:34.273Z,1.30
2018-09-23T15:58:03.489Z,1.40
2018-09-23T16:00:32.065Z,1.50
2018-09-23T16:03:00.750Z,1.37
2018-09-23T16:05:29.532Z,1.37
2018-09-23T16:07:58.083Z,1.37
2018-09-23T16:10:26.618Z,1.60
2018-09-23T16:12:55.164Z,1.40
2018-09-23T16:15:24.175Z,1.80
2018-09-23T16:17:52.851Z,1.60
2018-09-23T16:20:22.363Z,1.67
2018-09-23T16:22:51.392Z,1.53
2018-09-23T16:25:19.919Z,1.80
2018-09-23T16:27:48.445Z,1.40
2018-09-23T16:30:16.969Z,1.40
2018-09-23T16:32:45.777Z,1.30
2018-09-23T16:35:14.582Z,1.33
2018-09-23T16:37:43.515Z,1.57
2018-09-23T16:40:11.997Z,1.83
2018-09-23T16:42:41.263Z,1.53
2018-09-23T16:45:09.963Z,1.60
2018-09-23T16:47:39.209Z,1.63
2018-09-23T16:50:08.130Z,1.70
2018-09-23T16:52:36.978Z,1.93
2018-09-23T16:55:05.722Z,1.73
2018-09-23T16:57:34.650Z,1.50
2018-09-23T17:00:03.642Z,2.03
2018-09-23T17:02:32.211Z,2.73
2018-09-23T17:05:01.124Z,2.70
2018-09-23T17:07:29.732Z,2.47
2018-09-23T17:09:58.305Z,4.03
2018-09-23T17:12:27.146Z,3.60
2018-09-23T17:14:55.816Z,3.70
2018-09-23T17:17:24.630Z,4.20
2018-09-23T17:19:53.239Z,3.83
2018-09-23T17:22:21.793Z,3.90
2018-09-23T17:24:50.540Z,3.77
2018-09-23T17:27:19.371Z,3.47
2018-09-23T17:29:47.885Z,2.77
2018-09-23T17:32:16.474Z,2.60
2018-09-23T17:34:45.046Z,2.60
2018-09-23T17:37:13.632Z,2.30
2018-09-23T17:39:42.734Z,2.20
2018-09-23T17:42:11.346Z,2.27
2018-09-23T17:44:39.889Z,1.63
2018-09-23T17:47:08.546Z,1.80
2018-09-23T17:49:37.417Z,1.90
2018-09-23T17:52:06.054Z,1.63
2018-09-23T17:54:34.948Z,1.90
2018-09-23T17:57:04.655Z,1.90
2018-09-23T17:59:33.368Z,2.00
2018-09-23T18:02:02.232Z,2.13
2018-09-23T18:04:30.865Z,2.00
2018-09-23T18:06:59.495Z,2.10
2018-09-23T18:09:28.090Z,2.37
2018-09-23T18:11:56.874Z,2.60
2018-09-23T18:14:25.404Z,2.40
2018-09-23T18:16:54.188Z,2.10
2018-09-23T18:19:22.937Z,2.07
2018-09-23T18:21:51.543Z,2.27
2018-09-23T18:24:20.311Z,2.10
2018-09-23T18:26:49.000Z,1.90
2018-09-23T18:29:17.578Z,2.10
2018-09-23T18:31:46.286Z,2.30
2018-09-23T18:34:15.158Z,1.80
2018-09-23T18:36:44.599Z,1.70
2018-09-23T18:39:13.239Z,1.60
2018-09-23T18:41:41.861Z,1.93
2018-09-23T18:44:10.489Z,2.60
2018-09-23T18:46:39.047Z,2.90
2018-09-23T18:49:07.629Z,2.97
2018-09-23T18:51:36.186Z,2.03
2018-09-23T18:54:10.174Z,2.20
2018-09-23T18:56:38.747Z,2.50
2018-09-23T18:59:07.391Z,2.30
2018-09-23T19:01:36.016Z,2.77
2018-09-23T19:04:04.657Z,1.87
2018-09-23T19:06:33.184Z,2.10
2018-09-23T19:09:01.802Z,1.90
2018-09-23T19:11:30.462Z,2.50
2018-09-23T19:13:59.069Z,2.20
2018-09-23T19:16:29.874Z,2.30
2018-09-23T19:18:58.842Z,2.27
2018-09-23T19:21:28.073Z,2.60
2018-09-23T19:23:57.076Z,2.27
2018-09-23T19:26:25.783Z,2.23
2018-09-23T19:28:54.558Z,1.80
2018-09-23T19:31:24.000Z,1.90
2018-09-23T19:33:52.587Z,1.70
2018-09-23T19:36:21.252Z,1.73
2018-09-23T19:38:49.841Z,1.77
2018-09-23T19:41:18.435Z,1.70
2018-09-23T19:43:46.951Z,1.60
2018-09-23T19:46:15.486Z,1.80
2018-09-23T19:48:44.042Z,1.40
2018-09-23T19:51:12.604Z,1.30
2018-09-23T19:53:41.205Z,1.60
2018-09-23T19:56:09.745Z,1.10
2018-09-23T19:58:38.640Z,1.50
2018-09-23T20:01:07.227Z,1.40
2018-09-23T20:03:36.527Z,1.30
2018-09-23T20:06:05.078Z,1.53
2018-09-23T20:08:33.691Z,1.27
2018-09-23T20:11:02.320Z,1.40
2018-09-23T20:13:30.860Z,1.50
2018-09-23T20:15:59.421Z,1.30
2018-09-23T20:18:27.996Z,1.30
2018-09-23T20:20:56.743Z,1.33
2018-09-23T20:23:25.355Z,1.30
2018-09-23T20:25:53.982Z,1.50
2018-09-23T20:28:22.618Z,1.27
2018-09-23T20:30:51.203Z,1.30
2018-09-23T20:33:19.762Z,1.40
2018-09-23T20:35:48.369Z,1.47
2018-09-23T20:38:16.955Z,1.50
2018-09-23T20:40:45.624Z,1.20
2018-09-23T20:43:14.297Z,1.77
2018-09-23T20:45:42.863Z,1.20
2018-09-23T20:48:11.386Z,1.70
2018-09-23T20:50:39.919Z,2.20
2018-09-23T20:53:08.438Z,1.57
2018-09-23T20:55:37.009Z,2.17
2018-09-23T20:58:06.041Z,1.77
2018-09-23T21:00:34.601Z,1.50
2018-09-23T21:03:03.192Z,1.30
2018-09-23T21:05:31.824Z,1.60
2018-09-23T21:08:00.816Z,1.50
2018-09-23T21:10:29.355Z,1.47
2018-09-23T21:12:58.007Z,1.53
2018-09-23T21:15:26.578Z,1.60
2018-09-23T21:17:55.368Z,1.33
2018-09-23T21:20:24.238Z,1.50
2018-09-23T21:22:52.981Z,1.30
2018-09-23T21:25:21.548Z,0.97
2018-09-23T21:27:50.240Z,1.13
2018-09-23T21:30:18.906Z,1.10
2018-09-23T21:32:47.496Z,1.50
2018-09-23T21:35:16.018Z,1.60
2018-09-23T21:37:44.682Z,1.70
2018-09-23T21:40:13.239Z,1.87
2018-09-23T21:42:41.824Z,1.47
2018-09-23T21:45:10.401Z,1.20
2018-09-23T21:47:43.161Z,1.60
2018-09-23T21:50:11.786Z,1.80
2018-09-23T21:52:40.357Z,1.83
2018-09-23T21:55:09.271Z,1.70
2018-09-23T21:57:37.955Z,2.90
2018-09-23T22:00:07.652Z,2.63
2018-09-23T22:02:36.285Z,1.87
2018-09-23T22:05:05.674Z,1.63
2018-09-23T22:07:34.470Z,1.63
2018-09-23T22:10:03.483Z,1.47
2018-09-23T22:12:32.063Z,1.83
2018-09-23T22:15:00.881Z,1.50
2018-09-23T22:17:29.647Z,1.47
2018-09-23T22:19:58.296Z,1.10
2018-09-23T22:22:26.809Z,1.30
2018-09-23T22:24:55.510Z,1.20
2018-09-23T22:27:24.182Z,1.43
2018-09-23T22:29:52.765Z,1.30
2018-09-23T22:32:21.678Z,1.30
2018-09-23T22:34:50.241Z,1.17
2018-09-23T22:37:18.836Z,1.40
2018-09-23T22:39:47.380Z,1.27
2018-09-23T22:42:16.259Z,1.23
2018-09-23T22:44:44.823Z,1.30
2018-09-23T22:47:13.288Z,1.30
2018-09-23T22:49:41.802Z,1.10
2018-09-23T22:52:10.424Z,1.40
2018-09-23T22:54:39.072Z,1.30
2018-09-23T22:57:07.693Z,1.10
2018-09-23T22:59:36.219Z,1.63
2018-09-23T23:02:04.911Z,1.10
2018-09-23T23:04:33.434Z,1.10
2018-09-23T23:07:02.030Z,1.20
2018-09-23T23:09:30.536Z,1.30
2018-09-23T23:11:59.222Z,1.30
2018-09-23T23:14:27.839Z,1.20
2018-09-23T23:16:57.082Z,1.27
2018-09-23T23:19:25.745Z,1.40
2018-09-23T23:21:54.308Z,1.30
2018-09-23T23:24:22.870Z,1.20
2018-09-23T23:26:51.437Z,1.20
2018-09-23T23:29:19.978Z,1.20
2018-09-23T23:31:48.510Z,1.50
2018-09-23T23:34:17.024Z,1.20
2018-09-23T23:36:45.600Z,1.10
2018-09-23T23:39:14.352Z,1.07
2018-09-23T23:41:42.859Z,1.40
2018-09-23T23:44:11.387Z,1.30
2018-09-23T23:46:40.141Z,1.17
2018-09-23T23:49:09.036Z,1.47
2018-09-23T23:51:38.024Z,1.23
2018-09-23T23:54:07.603Z,1.50
2018-09-23T23:56:36.149Z,2.03
2018-09-23T23:59:04.697Z,1.60
